Spring House, PA (19477)

11:12 PM EDT on September 23, 2014 (GMT -0400)
Ambler | Change Station
CLOSE
Current Station
Personal Weather Station
Location: Ambler, PA
Elevation: 262 ft
Nearby Weather Stations

Elev 262 ft 40.16 °N, 75.23 °W | Updated 1 minute ago

Clear
Clear
52.0 °F
Feels Like 52.0 °F
N
0.0
Wind Variable Wind from North
Gusts 0.0 mph

Today
High -- | Low -- °F
--% Chance of Precip.
Yesterday
High -- | Low -- °F
Precip. -- in
6:49 AM 6:56 PM
Waning Crescent, 0% visible
Pressure 30.38 in
Visibility 10.0 miles
Clouds Clear
Dew Point 48 °F
Humidity 88%
Rainfall 0.00 in
Snow Depth Not available.
UV 0 out of 12
Pollen 2.30 out of 12
Air Quality Not available.
Flu Activity Not available.
METAR KLOM 240255Z AUTO 00000KT 10SM CLR 10/08 A3038 RMK AO1

More Conditions Fewer Conditions

Pressure 30.38 in
Visibility 10.0 miles
Clouds Clear
Dew Point 48 °F
Humidity 88%
Rainfall 0.00 in
Snow Depth Not available.
UV 0 out of 12
Pollen 2.30 out of 12
Air Quality Not available.
Flu Activity Not available.
METAR KLOM 240255Z AUTO 00000KT 10SM CLR 10/08 A3038 RMK AO1

More Conditions Fewer Conditions

10-Day Weather Forecast

Almanac

Astronomy

Sep. 23, 2014 Rise Set
Actual Time 6:49 AM EDT 6:56 PM EDT
Civil Twilight 6:22 AM EDT 7:23 PM EDT
Nautical Twilight 5:50 AM EDT 7:55 PM EDT
Astronomical Twilight 5:18 AM EDT 8:27 PM EDT
Moon 6:11 AM EDT (9/23) 6:34 PM EDT (9/23)
Length of Visible Light 13h 01m
Length of Day
12h 06m
Tomorrow will be 2m 38s shorter.
Waning Crescent, 0% of the Moon is Illuminated
Today
Waning Crescent
Sep 24
New
Oct 1
First Quarter
Oct 8
Full
Oct 15
Last Quarter

Today's Extremes

State Highs State Lows

Community

WunderPhotos

Upload Photos

1,755,877 photos uploaded!

WunderBlogs® & News

Nearby

Snow Depth

Station Depth Elevation
No new snow has been reported.

Earthquake Activity

City Distance Mag. Time & Date
No recent earthquake activity has been reported nearby.
Minimum magnitude displayed is 2.5.

Coastal Water Temperatures

Place Temperature
No Stations Reporting

Nearby Weather Stations